createdAt,value
2018-08-04T00:00:09.490Z,21.50
2018-08-04T00:02:38.945Z,21.50
2018-08-04T00:05:09.030Z,21.50
2018-08-04T00:10:13.559Z,21.50
2018-08-04T00:12:42.438Z,21.40
2018-08-04T00:15:18.143Z,21.40
2018-08-04T00:17:48.156Z,21.40
2018-08-04T00:20:17.439Z,21.40
2018-08-04T00:22:46.806Z,21.40
2018-08-04T00:25:15.853Z,21.40
2018-08-04T00:27:44.856Z,21.40
2018-08-04T00:30:15.218Z,21.50
2018-08-04T00:32:45.111Z,21.50
2018-08-04T00:35:14.025Z,21.40
2018-08-04T00:37:42.986Z,21.40
2018-08-04T00:40:13.994Z,21.30
2018-08-04T00:42:43.784Z,21.30
2018-08-04T00:47:42.053Z,21.30
2018-08-04T00:50:11.591Z,21.20
2018-08-04T00:55:09.044Z,21.20
2018-08-04T00:57:37.996Z,21.10
2018-08-04T01:00:07.786Z,21.00
2018-08-04T01:02:37.644Z,21.10
2018-08-04T01:05:07.058Z,21.00
2018-08-04T01:07:35.924Z,21.00
2018-08-04T01:10:06.181Z,21.00
2018-08-04T01:15:03.772Z,20.90
2018-08-04T01:17:32.756Z,21.00
2018-08-04T01:25:06.650Z,21.00
2018-08-04T01:27:35.544Z,21.00
2018-08-04T01:30:05.199Z,20.90
2018-08-04T01:32:34.162Z,20.80
2018-08-04T01:35:03.218Z,20.70
2018-08-04T01:37:32.918Z,20.70
2018-08-04T01:40:02.466Z,20.70
2018-08-04T01:42:32.248Z,20.50
2018-08-04T01:45:01.213Z,20.40
2018-08-04T01:47:30.652Z,20.30
2018-08-04T01:49:59.513Z,20.20
2018-08-04T01:52:28.422Z,20.20
2018-08-04T01:54:57.350Z,20.20
2018-08-04T01:57:26.256Z,20.20
2018-08-04T02:02:23.737Z,20.00
2018-08-04T02:07:21.190Z,20.10
2018-08-04T02:14:47.829Z,20.10
2018-08-04T02:17:16.693Z,20.20
2018-08-04T02:19:45.640Z,20.30
2018-08-04T02:22:14.527Z,20.30
2018-08-04T02:24:43.460Z,20.30
2018-08-04T02:27:12.330Z,20.30
2018-08-04T02:34:39.046Z,20.30
2018-08-04T02:37:07.999Z,20.20
2018-08-04T02:39:36.908Z,20.10
2018-08-04T02:42:06.570Z,20.10
2018-08-04T02:44:35.528Z,20.10
2018-08-04T02:47:04.445Z,20.10
2018-08-04T02:49:33.385Z,20.20
2018-08-04T02:52:02.848Z,20.20
2018-08-04T02:54:32.394Z,20.20
2018-08-04T02:57:01.762Z,20.20
2018-08-04T03:01:59.361Z,20.00
2018-08-04T03:04:28.262Z,19.90
2018-08-04T03:06:57.215Z,19.90
2018-08-04T03:09:26.815Z,19.70
2018-08-04T03:11:55.721Z,19.70
2018-08-04T03:16:53.120Z,19.70
2018-08-04T03:19:22.376Z,19.60
2018-08-04T03:21:51.322Z,19.50
2018-08-04T03:24:20.459Z,19.50
2018-08-04T03:26:49.333Z,19.50
2018-08-04T03:29:18.254Z,19.50
2018-08-04T03:34:17.241Z,19.50
2018-08-04T03:36:46.912Z,19.40
2018-08-04T03:39:15.812Z,19.40
2018-08-04T03:41:44.727Z,19.30
2018-08-04T03:44:13.685Z,19.20
2018-08-04T03:46:43.779Z,19.10
2018-08-04T03:49:12.704Z,19.10
2018-08-04T03:51:41.643Z,19.00
2018-08-04T03:56:39.491Z,19.00
2018-08-04T03:59:08.951Z,18.90
2018-08-04T04:01:37.875Z,18.90
2018-08-04T04:04:06.764Z,19.00
2018-08-04T04:06:36.692Z,19.00
2018-08-04T04:09:08.268Z,19.10
2018-08-04T04:11:37.893Z,19.10
2018-08-04T04:16:36.329Z,19.10
2018-08-04T04:19:05.259Z,19.10
2018-08-04T04:21:34.990Z,19.20
2018-08-04T04:26:32.455Z,19.10
2018-08-04T04:33:59.577Z,19.20
2018-08-04T04:36:28.957Z,19.20
2018-08-04T04:38:57.937Z,19.10
2018-08-04T04:43:55.321Z,19.10
2018-08-04T04:46:24.257Z,19.10
2018-08-04T04:48:53.228Z,19.10
2018-08-04T04:51:22.126Z,19.00
2018-08-04T04:53:51.028Z,19.10
2018-08-04T04:56:19.961Z,19.00
2018-08-04T05:01:17.372Z,19.10
2018-08-04T05:06:16.356Z,19.10
2018-08-04T05:08:45.301Z,18.90
2018-08-04T05:11:14.457Z,18.80
2018-08-04T05:13:43.975Z,18.80
2018-08-04T05:16:12.917Z,18.70
2018-08-04T05:18:41.877Z,18.60
2018-08-04T05:21:11.779Z,18.70
2018-08-04T05:23:40.718Z,18.70
2018-08-04T05:26:09.659Z,18.70
2018-08-04T05:28:38.608Z,18.60
2018-08-04T05:31:07.603Z,18.60
2018-08-04T05:33:37.415Z,18.70
2018-08-04T05:36:06.957Z,18.70
2018-08-04T05:38:36.561Z,18.70
2018-08-04T05:41:06.305Z,18.60
2018-08-04T05:43:35.611Z,18.60
2018-08-04T05:48:33.107Z,18.60
2018-08-04T05:51:02.029Z,18.60
2018-08-04T05:53:30.925Z,18.70
2018-08-04T05:56:00.836Z,18.80
2018-08-04T05:58:29.736Z,18.90
2018-08-04T06:00:58.674Z,19.00
2018-08-04T06:05:56.147Z,19.20
2018-08-04T06:10:55.322Z,19.30
2018-08-04T06:13:24.235Z,19.30
2018-08-04T06:15:53.170Z,19.30
2018-08-04T06:18:22.056Z,19.40
2018-08-04T06:20:50.920Z,19.50
2018-08-04T06:25:48.377Z,19.60
2018-08-04T06:28:17.872Z,19.70
2018-08-04T06:30:47.530Z,19.70
2018-08-04T06:33:17.423Z,19.80
2018-08-04T06:38:14.818Z,19.90
2018-08-04T06:40:43.713Z,19.90
2018-08-04T06:43:12.706Z,19.90
2018-08-04T06:45:42.079Z,20.00
2018-08-04T06:48:11.988Z,20.00
2018-08-04T06:53:10.840Z,20.10
2018-08-04T06:55:39.782Z,20.10
2018-08-04T07:00:39.033Z,20.30
2018-08-04T07:03:08.556Z,20.30
2018-08-04T07:05:37.513Z,20.30
